Impacts TAF Board INFO
FOR SITUATIONAL AWARENESS. NOT TO BE USED FOR FLIGHT PLANNING PURPOSES.
IDs:

KMSP - Minneapolis-St Paul, MN, US

Issued at 0307 UTC 20 Aug 2018
Updated at 0331 UTC 20 Aug 2018
Potential Impact None Slight Moderate High
Time0253Z 20/04Z 20/05Z 20/06Z 20/07Z 20/08Z 20/09Z 20/10Z 20/11Z 20/12Z 20/13Z 20/14Z 20/15Z 20/16Z>>
Type OBS PRVL PRVL PRVL PRVL PRVL PRVL PRVL PRVL PRVL PRVL PRVL PRVL PRVL
VIS 9 >6 >6 >6 >6 >6 >6 >6 >6 >6 >6 >6 >6 >6
CIG 250 250 250 250 250 250 250 35 35 35 28 28 28 28
Cover OVC OVC OVC OVC OVC OVC OVC OVC OVC OVC OVC OVC OVC OVC
FltCat VFR VFR VFR VFR VFR VFR VFR VFR VFR VFR MVFR MVFR MVFR MVFR
WX -- -- -- -- -- -- -- VCSH VCSH VCSH -SHRA -SHRA -SHRA -SHRA
WDir 110 90 90 90 90 90 90 30 30 30 20 20 20 20
WSpd 9 6 6 6 6 6 6 10 10 10 12 12 12 12
WGst -- -- -- -- -- -- -- -- -- -- -- -- -- --

Raw TAF
KMSP 200307Z 2003/2106 09006KT P6SM SCT040 OVC250
  FM201000 03010KT P6SM VCSH BKN035 OVC060
  FM201300 02012KT P6SM -SHRA OVC028
  FM202100 02011KT P6SM SCT030 BKN050


Raw METAR
KMSP 200253Z 11009KT 9SM FEW040 SCT090 OVC250 26/20 A2992 RMK AO2 SLP127 TCU DSNT SE T02560200 53013
KMSP 200153Z 10008KT 10SM FEW040 FEW085 OVC250 27/20 A2991 RMK AO2 SLP123 T02670200
KMSP 200053Z 13009KT 9SM FEW040 OVC250 27/19 A2989 RMK AO2 SLP118 T02720194

METAR Board
Radar Display
Forecast Discussion

FOR SITUATIONAL AWARENESS. NOT TO BE USED FOR FLIGHT PLANNING PURPOSES.